Time;durP1;ratioP1;P1;durP2;ratioP2;P2;SDS_P1;SDS_P2;PMS_P1;PMS_P2;Temp;Humidity;BMP_temperature;BMP_pressure;BME280_temperature;BME280_humidity;BME280_pressure;Samples;Min_cycle;Max_cycle;Signal;HPM_P1;HPM_P2
2022/09/18 00:02:09;;;;;;;8.35;3.53;;;8.50;99.90;;;;;;5025942;28;20045;-66
2022/09/18 00:04:35;;;;;;;6.68;3.45;;;8.60;99.90;;;;;;5026832;28;20116;-64
2022/09/18 00:07:00;;;;;;;14.05;3.95;;;8.60;99.90;;;;;;5026898;28;20072;-65
2022/09/18 00:09:26;;;;;;;9.98;3.53;;;8.60;99.90;;;;;;5027802;28;20431;-65
2022/09/18 00:11:52;;;;;;;9.27;3.88;;;8.60;99.90;;;;;;5027035;28;20029;-65
2022/09/18 00:14:20;;;;;;;10.55;3.90;;;8.60;99.90;;;;;;5026205;28;20049;-65
2022/09/18 00:16:46;;;;;;;8.27;3.05;;;8.60;99.90;;;;;;5027092;28;20045;-65
2022/09/18 00:19:13;;;;;;;11.98;3.72;;;8.70;99.90;;;;;;5025322;28;20064;-64
2022/09/18 00:21:44;;;;;;;11.13;3.50;;;8.60;99.90;;;;;;5026440;28;20032;-63
2022/09/18 00:24:10;;;;;;;11.65;3.63;;;8.60;99.90;;;;;;5028401;28;20482;-64
2022/09/18 00:26:36;;;;;;;8.48;3.35;;;8.70;99.90;;;;;;5026479;28;20030;-66
2022/09/18 00:29:03;;;;;;;9.73;3.50;;;8.60;99.90;;;;;;5026200;28;20156;-65
2022/09/18 00:31:32;;;;;;;10.55;3.20;;;8.60;99.90;;;;;;5025123;28;20120;-65
2022/09/18 00:34:00;;;;;;;12.18;3.35;;;8.60;99.90;;;;;;5027592;28;20034;-67
2022/09/18 00:36:26;;;;;;;14.88;3.25;;;8.60;99.90;;;;;;5025080;28;20124;-63
2022/09/18 00:38:52;;;;;;;8.93;3.60;;;8.60;99.90;;;;;;5027868;28;20037;-64
2022/09/18 00:41:26;;;;;;;11.30;3.40;;;8.60;99.90;;;;;;5026161;28;20068;-64
2022/09/18 00:43:58;;;;;;;9.70;3.83;;;8.60;99.90;;;;;;5025310;28;20039;-64
2022/09/18 00:46:34;;;;;;;12.60;3.42;;;8.60;99.90;;;;;;5023489;28;20040;-63
2022/09/18 00:49:03;;;;;;;8.13;3.35;;;8.60;99.90;;;;;;5025533;28;20129;-65
2022/09/18 00:51:32;;;;;;;8.48;3.28;;;8.60;99.90;;;;;;5026345;28;20052;-64
2022/09/18 00:54:09;;;;;;;13.27;3.50;;;8.60;99.90;;;;;;5018651;28;20478;-65
2022/09/18 00:56:36;;;;;;;9.60;3.92;;;8.60;99.90;;;;;;5017759;28;20068;-64
2022/09/18 00:59:03;;;;;;;14.43;3.88;;;8.60;99.90;;;;;;5025781;28;20095;-65
2022/09/18 01:01:28;;;;;;;8.27;3.42;;;8.60;99.90;;;;;;5030233;28;20018;-64
2022/09/18 01:03:54;;;;;;;11.00;3.42;;;8.60;99.90;;;;;;5030324;28;20457;-64
2022/09/18 01:06:37;;;;;;;12.55;3.70;;;8.60;99.90;;;;;;5030325;28;20160;-64
2022/09/18 01:09:16;;;;;;;9.88;3.60;;;8.60;99.90;;;;;;5028806;28;20053;-65
2022/09/18 01:11:48;;;;;;;15.70;3.90;;;8.60;99.90;;;;;;5031912;28;20071;-65
2022/09/18 01:14:33;;;;;;;12.25;3.45;;;8.60;99.90;;;;;;5026986;28;20036;-64
2022/09/18 01:17:11;;;;;;;11.27;3.67;;;8.60;99.90;;;;;;5029131;28;20029;-65
2022/09/18 01:20:20;;;;;;;11.27;3.30;;;8.60;99.90;;;;;;5028372;28;20053;-64
2022/09/18 01:23:05;;;;;;;8.07;3.17;;;8.60;99.90;;;;;;5022919;28;20083;-65
2022/09/18 01:25:39;;;;;;;10.10;3.05;;;8.60;99.90;;;;;;5028885;28;20497;-64
2022/09/18 01:28:31;;;;;;;8.32;2.92;;;8.60;99.90;;;;;;5025557;28;20087;-68
2022/09/18 01:31:04;;;;;;;9.77;3.03;;;8.60;99.90;;;;;;5031454;28;20377;-64
2022/09/18 01:33:38;;;;;;;9.18;3.17;;;8.60;99.90;;;;;;5029164;28;20068;-65
2022/09/18 01:36:08;;;;;;;12.93;3.30;;;8.60;99.90;;;;;;5027732;28;20029;-67
2022/09/18 01:39:03;;;;;;;11.25;3.60;;;8.50;99.90;;;;;;5030292;28;20486;-64
2022/09/18 01:41:29;;;;;;;9.95;3.30;;;8.50;99.90;;;;;;5031759;28;20030;-64
2022/09/18 01:44:11;;;;;;;9.93;2.83;;;8.50;99.90;;;;;;5031373;28;20046;-64
2022/09/18 01:46:40;;;;;;;11.02;3.17;;;8.50;99.90;;;;;;5031424;28;20033;-64
2022/09/18 01:49:12;;;;;;;10.13;3.50;;;8.40;99.90;;;;;;5028186;28;20041;-68
2022/09/18 01:51:52;;;;;;;7.70;3.30;;;8.40;99.90;;;;;;5029959;28;20493;-64
2022/09/18 01:54:26;;;;;;;6.93;3.25;;;8.50;99.90;;;;;;5030544;28;20030;-64
2022/09/18 01:57:01;;;;;;;9.52;3.50;;;8.40;99.90;;;;;;5029887;28;20449;-65
2022/09/18 01:59:50;;;;;;;10.85;3.42;;;8.40;99.90;;;;;;5031224;28;20033;-65
2022/09/18 02:02:42;;;;;;;10.15;3.70;;;8.40;99.90;;;;;;5029424;28;20117;-64
2022/09/18 02:05:16;;;;;;;10.15;3.35;;;8.40;99.90;;;;;;5002669;28;20077;-65
2022/09/18 02:08:17;;;;;;;14.80;3.72;;;8.30;99.90;;;;;;5022842;28;20108;-65
2022/09/18 02:11:01;;;;;;;14.80;3.70;;;8.30;99.90;;;;;;5010589;28;20065;-65
2022/09/18 02:13:32;;;;;;;11.00;4.30;;;8.30;99.90;;;;;;5042327;28;20912;-65
2022/09/18 02:16:03;;;;;;;9.90;4.50;;;8.30;99.90;;;;;;5028407;28;20374;-66
2022/09/18 02:18:32;;;;;;;;;;;8.30;99.90;;;;;;5028651;28;20032;-64
2022/09/18 02:20:59;;;;;;;11.57;4.00;;;8.30;99.90;;;;;;5029363;28;19912;-66
2022/09/18 02:23:27;;;;;;;14.23;4.47;;;8.20;99.90;;;;;;5028582;28;20021;-65
2022/09/18 02:25:59;;;;;;;12.68;4.38;;;8.20;99.90;;;;;;5028783;28;20036;-66
2022/09/18 02:28:27;;;;;;;15.00;5.07;;;8.20;99.90;;;;;;5026768;28;20036;-64
2022/09/18 02:30:53;;;;;;;12.95;4.03;;;8.20;99.90;;;;;;5026800;28;20025;-65
2022/09/18 02:33:37;;;;;;;6.97;3.95;;;8.20;99.90;;;;;;5027127;28;20394;-64
2022/09/18 02:36:33;;;;;;;8.57;4.13;;;8.20;99.90;;;;;;5029582;28;20041;-65
2022/09/18 02:39:13;;;;;;;12.20;3.80;;;8.20;99.90;;;;;;5027353;28;20277;-65
2022/09/18 02:42:13;;;;;;;7.15;3.58;;;8.20;99.90;;;;;;5017284;28;20026;-65
2022/09/18 02:45:02;;;;;;;15.52;4.30;;;8.20;99.90;;;;;;5027890;28;20033;-65
2022/09/18 02:47:53;;;;;;;10.07;4.60;;;8.20;99.90;;;;;;5027104;28;20025;-65
2022/09/18 02:50:38;;;;;;;11.88;4.63;;;8.20;99.90;;;;;;5027580;28;20170;-65
2022/09/18 02:53:22;;;;;;;10.55;4.03;;;8.20;99.90;;;;;;5028154;28;20390;-64
2022/09/18 02:56:12;;;;;;;11.95;4.00;;;8.20;99.90;;;;;;5030733;28;20036;-64
2022/09/18 02:58:55;;;;;;;10.20;3.85;;;8.10;99.90;;;;;;5028586;28;20043;-63
2022/09/18 03:01:24;;;;;;;11.45;3.72;;;8.20;99.90;;;;;;5026729;28;20052;-65
2022/09/18 03:03:50;;;;;;;10.35;3.60;;;8.10;99.90;;;;;;5027859;28;20033;-67
2022/09/18 03:06:16;;;;;;;8.65;3.75;;;8.20;99.90;;;;;;5024703;28;20544;-65
2022/09/18 03:08:42;;;;;;;8.90;3.20;;;8.20;99.90;;;;;;5029034;28;20037;-65
2022/09/18 03:11:08;;;;;;;9.93;3.15;;;8.10;99.90;;;;;;5029426;28;20080;-68
2022/09/18 03:13:33;;;;;;;9.05;3.20;;;8.20;99.90;;;;;;5025353;28;20026;-64
2022/09/18 03:15:59;;;;;;;7.28;2.88;;;8.10;99.90;;;;;;5026773;28;20378;-64
2022/09/18 03:18:26;;;;;;;8.00;2.90;;;8.10;99.90;;;;;;5028310;28;20080;-65
2022/09/18 03:20:51;;;;;;;8.43;3.40;;;8.10;99.90;;;;;;5025285;28;20037;-65
2022/09/18 03:23:17;;;;;;;11.85;3.13;;;8.10;99.90;;;;;;5027922;28;20036;-65
2022/09/18 03:25:43;;;;;;;5.90;3.25;;;8.10;99.90;;;;;;5027604;28;20477;-65
2022/09/18 03:28:08;;;;;;;11.05;3.28;;;8.10;99.90;;;;;;5027980;28;20037;-67
2022/09/18 03:30:35;;;;;;;8.60;3.22;;;8.10;99.90;;;;;;5026423;28;20112;-62
2022/09/18 03:33:00;;;;;;;9.38;3.60;;;8.00;99.90;;;;;;5025418;28;20057;-63
2022/09/18 03:35:26;;;;;;;9.05;3.42;;;8.00;99.90;;;;;;5025715;28;20095;-64
2022/09/18 03:37:53;;;;;;;11.93;3.72;;;8.10;99.90;;;;;;5027772;28;20052;-65
2022/09/18 03:40:19;;;;;;;13.82;3.80;;;8.10;99.90;;;;;;5027284;28;20026;-67
2022/09/18 03:42:45;;;;;;;10.50;3.42;;;8.10;99.90;;;;;;5025079;28;20033;-64
2022/09/18 03:45:11;;;;;;;15.90;4.07;;;8.10;99.90;;;;;;5024287;28;20041;-67
2022/09/18 03:47:37;;;;;;;9.27;3.58;;;8.10;99.90;;;;;;5029428;28;20044;-65
2022/09/18 03:50:05;;;;;;;12.88;3.60;;;8.10;99.90;;;;;;5026865;28;20033;-64
2022/09/18 03:52:31;;;;;;;11.52;3.30;;;8.10;99.90;;;;;;5028008;28;20060;-64
2022/09/18 03:54:57;;;;;;;14.75;3.47;;;8.10;99.90;;;;;;5027685;28;20048;-64
2022/09/18 03:57:23;;;;;;;9.27;3.30;;;8.10;99.90;;;;;;5027441;28;20037;-64
2022/09/18 03:59:48;;;;;;;8.60;3.22;;;8.20;99.90;;;;;;5025320;28;20418;-65
2022/09/18 04:02:14;;;;;;;9.48;3.20;;;8.20;99.90;;;;;;5028086;28;20545;-64
2022/09/18 04:04:40;;;;;;;8.48;3.10;;;8.20;99.90;;;;;;5025842;28;20486;-64
2022/09/18 04:07:08;;;;;;;7.95;3.22;;;8.20;99.90;;;;;;5028941;28;20025;-64
2022/09/18 04:09:34;;;;;;;12.30;3.65;;;8.20;99.90;;;;;;5025916;28;20028;-64
2022/09/18 04:12:00;;;;;;;11.73;3.13;;;8.20;99.90;;;;;;5028332;28;20029;-64
2022/09/18 04:14:25;;;;;;;8.07;3.60;;;8.20;99.90;;;;;;5024909;28;20029;-64
2022/09/18 04:16:51;;;;;;;8.77;3.28;;;8.30;99.90;;;;;;5027314;28;20034;-65
2022/09/18 04:19:17;;;;;;;11.38;3.50;;;8.30;99.90;;;;;;5025275;28;20030;-65
2022/09/18 04:21:42;;;;;;;7.70;3.42;;;8.30;99.90;;;;;;5028469;28;20025;-64
2022/09/18 04:24:08;;;;;;;11.20;3.97;;;8.20;99.90;;;;;;5027630;28;20029;-63
2022/09/18 04:26:34;;;;;;;7.32;3.25;;;8.30;99.90;;;;;;5024718;28;20109;-63
2022/09/18 04:29:00;;;;;;;14.07;3.70;;;8.30;99.90;;;;;;5025045;28;20058;-64
2022/09/18 04:31:26;;;;;;;11.60;3.83;;;8.30;99.90;;;;;;5027301;28;20104;-64
2022/09/18 04:33:51;;;;;;;10.48;4.07;;;8.30;99.90;;;;;;5024705;28;21286;-64
2022/09/18 04:36:17;;;;;;;6.60;3.30;;;8.30;99.90;;;;;;5024358;28;20470;-66
2022/09/18 04:38:42;;;;;;;16.90;4.28;;;8.30;99.90;;;;;;5027030;28;20038;-64
2022/09/18 04:41:08;;;;;;;10.35;3.75;;;8.30;99.90;;;;;;5029102;28;20030;-64
2022/09/18 04:43:33;;;;;;;7.78;3.90;;;8.30;99.90;;;;;;5030087;28;20028;-63
2022/09/18 04:45:59;;;;;;;16.10;4.20;;;8.30;99.90;;;;;;5029695;28;20071;-64
2022/09/18 04:48:25;;;;;;;9.50;3.97;;;8.40;99.90;;;;;;5030673;28;20033;-62
2022/09/18 04:50:51;;;;;;;9.55;3.75;;;8.40;99.90;;;;;;5029200;28;20030;-65
2022/09/18 04:53:17;;;;;;;11.98;4.15;;;8.30;99.90;;;;;;5029518;28;20061;-67
2022/09/18 04:55:43;;;;;;;8.88;3.72;;;8.40;99.90;;;;;;5030261;28;20034;-64
2022/09/18 04:58:10;;;;;;;12.85;4.72;;;8.40;99.90;;;;;;5032284;28;20062;-64
2022/09/18 05:00:37;;;;;;;8.77;3.97;;;8.40;99.90;;;;;;5028480;28;20702;-63
2022/09/18 05:03:06;;;;;;;13.48;3.83;;;8.40;99.90;;;;;;5028869;28;20095;-64
2022/09/18 05:05:32;;;;;;;5.65;3.30;;;8.40;99.90;;;;;;5030428;28;20038;-63
2022/09/18 05:07:59;;;;;;;6.47;3.45;;;8.40;99.90;;;;;;5027188;28;20045;-65
2022/09/18 05:10:25;;;;;;;8.68;3.97;;;8.40;99.90;;;;;;5030209;28;20033;-64
2022/09/18 05:12:50;;;;;;;10.82;3.80;;;8.40;99.90;;;;;;5029901;28;20047;-66
2022/09/18 05:15:17;;;;;;;8.02;3.70;;;8.40;99.90;;;;;;5026511;28;20037;-68
2022/09/18 05:17:43;;;;;;;10.38;3.75;;;8.40;99.90;;;;;;5030326;28;20053;-64
2022/09/18 05:20:09;;;;;;;6.55;3.30;;;8.40;99.90;;;;;;5028733;28;20516;-63
2022/09/18 05:22:35;;;;;;;9.75;3.78;;;8.40;99.90;;;;;;5023389;28;20049;-64
2022/09/18 05:25:02;;;;;;;10.30;4.10;;;8.40;99.90;;;;;;5030382;28;20076;-64
2022/09/18 05:27:27;;;;;;;7.78;3.20;;;8.50;99.90;;;;;;5026330;28;20022;-68
2022/09/18 05:29:53;;;;;;;7.93;3.10;;;8.50;99.90;;;;;;5025978;28;20036;-65
2022/09/18 05:32:19;;;;;;;10.07;3.63;;;8.50;99.90;;;;;;5023402;28;20376;-66
2022/09/18 05:34:48;;;;;;;8.68;3.30;;;8.50;99.90;;;;;;5024982;28;20072;-64
2022/09/18 05:37:16;;;;;;;10.57;4.20;;;8.50;99.90;;;;;;5025324;28;20129;-64
2022/09/18 05:39:42;;;;;;;11.10;4.10;;;8.50;99.90;;;;;;5029304;28;20091;-65
2022/09/18 05:42:08;;;;;;;5.65;3.22;;;8.50;99.90;;;;;;5031385;28;20029;-64
2022/09/18 05:44:33;;;;;;;6.25;3.33;;;8.50;99.90;;;;;;5021119;28;20117;-64
2022/09/18 05:47:00;;;;;;;9.40;3.35;;;8.50;99.90;;;;;;5032145;28;20087;-65
2022/09/18 05:49:25;;;;;;;7.40;3.80;;;8.60;99.90;;;;;;5028989;28;20121;-66
2022/09/18 05:51:53;;;;;;;6.15;3.08;;;8.50;99.90;;;;;;5031632;28;20512;-65
2022/09/18 05:54:18;;;;;;;8.05;3.63;;;8.60;99.90;;;;;;5031541;28;20060;-68
2022/09/18 05:56:44;;;;;;;5.97;3.15;;;8.50;99.90;;;;;;5029411;28;20065;-64
2022/09/18 05:59:10;;;;;;;8.75;3.30;;;8.60;99.90;;;;;;5031911;28;20462;-65
2022/09/18 06:01:35;;;;;;;8.75;3.47;;;8.60;99.90;;;;;;5029625;28;20087;-64
2022/09/18 06:04:04;;;;;;;15.52;3.88;;;8.50;99.90;;;;;;5031155;28;20037;-64
2022/09/18 06:06:30;;;;;;;6.55;2.95;;;8.60;99.90;;;;;;5028616;28;20040;-65
2022/09/18 06:08:56;;;;;;;7.40;3.47;;;8.60;99.90;;;;;;5030131;28;20043;-64
2022/09/18 06:11:22;;;;;;;7.88;3.40;;;8.50;99.90;;;;;;5026986;28;20037;-64
2022/09/18 06:13:50;;;;;;;5.53;2.70;;;8.60;99.90;;;;;;5031717;28;20532;-64
2022/09/18 06:16:17;;;;;;;7.68;2.75;;;8.60;99.90;;;;;;5029872;28;20394;-66
2022/09/18 06:18:43;;;;;;;5.82;2.78;;;8.60;99.90;;;;;;5029405;28;20143;-67
2022/09/18 06:21:09;;;;;;;6.28;2.63;;;8.60;99.90;;;;;;5031081;28;20037;-65
2022/09/18 06:23:35;;;;;;;6.68;3.03;;;8.60;99.90;;;;;;5024530;28;20040;-65
2022/09/18 06:26:03;;;;;;;7.18;2.90;;;8.60;99.90;;;;;;5031211;28;20037;-65
2022/09/18 06:28:29;;;;;;;6.53;3.08;;;8.60;99.90;;;;;;5030650;28;20116;-63
2022/09/18 06:30:57;;;;;;;7.18;3.20;;;8.60;99.90;;;;;;5027555;28;20125;-65
2022/09/18 06:33:23;;;;;;;5.07;2.75;;;8.60;99.90;;;;;;5029351;28;20038;-67
2022/09/18 06:35:49;;;;;;;7.93;3.20;;;8.60;99.90;;;;;;5020452;28;20029;-62
2022/09/18 06:38:15;;;;;;;7.18;3.55;;;8.60;99.90;;;;;;5031264;28;20072;-64
2022/09/18 06:40:50;;;;;;;8.75;3.53;;;8.60;99.90;;;;;;5027844;28;20632;-63
2022/09/18 06:43:17;;;;;;;6.60;3.65;;;8.60;99.90;;;;;;5027953;28;20029;-64
2022/09/18 06:45:43;;;;;;;7.72;3.50;;;8.60;99.90;;;;;;5024728;28;20021;-64
2022/09/18 06:48:08;;;;;;;6.93;3.20;;;8.70;99.90;;;;;;5028523;28;20029;-64
2022/09/18 06:50:34;;;;;;;5.72;3.20;;;8.70;99.90;;;;;;5025236;28;20398;-65
2022/09/18 06:53:04;;;;;;;9.50;3.65;;;8.70;99.90;;;;;;5027563;28;20044;-65
2022/09/18 06:55:33;;;;;;;6.88;3.65;;;8.60;99.90;;;;;;5020976;28;20040;-63
2022/09/18 06:57:59;;;;;;;8.70;3.38;;;8.70;99.90;;;;;;5027002;28;20638;-64
2022/09/18 07:00:26;;;;;;;6.95;3.28;;;8.70;99.90;;;;;;5026320;28;20053;-66
2022/09/18 07:03:00;;;;;;;5.60;2.80;;;8.70;99.90;;;;;;5029951;28;20493;-65
2022/09/18 07:05:28;;;;;;;12.18;3.72;;;8.70;99.90;;;;;;5028894;28;20486;-62
2022/09/18 07:07:54;;;;;;;6.80;3.10;;;8.70;99.90;;;;;;5030206;28;20100;-64
2022/09/18 07:10:19;;;;;;;6.55;2.85;;;8.80;99.90;;;;;;5026689;28;20108;-64
2022/09/18 07:12:47;;;;;;;8.05;2.80;;;8.80;99.90;;;;;;5026357;28;20037;-65
2022/09/18 07:15:17;;;;;;;4.63;2.90;;;8.80;99.90;;;;;;5027482;28;20037;-62
2022/09/18 07:17:44;;;;;;;6.07;3.03;;;8.80;99.90;;;;;;5024900;28;20614;-62
2022/09/18 07:20:11;;;;;;;7.57;3.47;;;8.80;99.90;;;;;;5029076;28;20029;-64
2022/09/18 07:22:37;;;;;;;8.95;3.80;;;8.80;99.90;;;;;;5026251;28;20056;-66
2022/09/18 07:25:04;;;;;;;10.93;3.75;;;8.90;99.90;;;;;;5024797;28;20386;-64
2022/09/18 07:27:30;;;;;;;7.10;3.20;;;8.90;99.90;;;;;;5026969;28;20089;-64
2022/09/18 07:29:56;;;;;;;10.25;3.67;;;8.90;99.90;;;;;;5028418;28;20517;-63
2022/09/18 07:32:23;;;;;;;5.53;3.58;;;9.00;99.90;;;;;;5026420;28;20041;-68
2022/09/18 07:34:48;;;;;;;8.02;4.60;;;9.00;99.90;;;;;;5027189;28;20029;-64
2022/09/18 07:37:15;;;;;;;9.27;4.10;;;9.00;99.90;;;;;;5026755;28;20837;-63
2022/09/18 07:39:42;;;;;;;9.65;3.92;;;9.00;99.90;;;;;;5023138;28;20446;-64
2022/09/18 07:42:09;;;;;;;8.52;4.40;;;9.00;99.90;;;;;;5021397;28;20034;-63
2022/09/18 07:44:35;;;;;;;9.70;4.15;;;9.00;99.90;;;;;;5023279;28;20033;-65
2022/09/18 07:47:01;;;;;;;11.10;4.22;;;9.00;99.90;;;;;;5025102;28;20057;-63
2022/09/18 07:49:26;;;;;;;7.95;4.45;;;8.90;99.90;;;;;;5022549;28;20022;-68
2022/09/18 07:51:52;;;;;;;11.95;4.47;;;8.90;99.90;;;;;;5024746;28;20435;-64
2022/09/18 07:54:18;;;;;;;12.63;4.72;;;8.90;99.90;;;;;;5027998;28;20554;-64
2022/09/18 07:56:44;;;;;;;7.20;3.67;;;8.90;99.90;;;;;;5028049;28;20668;-63
2022/09/18 07:59:10;;;;;;;7.68;4.18;;;8.90;99.90;;;;;;5027672;28;20394;-64
2022/09/18 08:01:36;;;;;;;7.03;3.97;;;9.00;99.90;;;;;;5029353;28;20037;-63
2022/09/18 08:04:02;;;;;;;7.45;3.92;;;9.00;99.90;;;;;;5029755;28;20175;-63
2022/09/18 08:06:28;;;;;;;10.32;5.00;;;9.00;99.90;;;;;;5028671;28;20556;-65
2022/09/18 08:08:54;;;;;;;7.72;4.07;;;9.10;99.90;;;;;;5028386;28;20065;-64
2022/09/18 08:11:20;;;;;;;10.63;4.28;;;9.10;99.90;;;;;;5029356;28;20083;-66
2022/09/18 08:13:49;;;;;;;9.30;4.68;;;9.20;99.90;;;;;;5028605;28;20110;-64
2022/09/18 08:16:15;;;;;;;6.72;3.78;;;9.20;99.90;;;;;;5028401;28;20083;-64
2022/09/18 08:18:40;;;;;;;8.50;4.20;;;9.20;99.90;;;;;;5028840;28;20115;-65
2022/09/18 08:21:07;;;;;;;9.43;4.90;;;9.20;99.90;;;;;;5029547;28;20466;-64
2022/09/18 08:23:33;;;;;;;9.60;4.32;;;9.20;99.90;;;;;;5028491;28;20120;-64
2022/09/18 08:26:03;;;;;;;9.13;4.20;;;9.20;99.90;;;;;;5029549;28;20110;-64
2022/09/18 08:28:28;;;;;;;10.73;4.10;;;9.20;99.90;;;;;;5028991;28;20033;-67
2022/09/18 08:30:56;;;;;;;10.10;4.22;;;9.20;99.90;;;;;;5028698;28;20029;-61
2022/09/18 08:33:22;;;;;;;8.70;4.28;;;9.20;99.90;;;;;;5029477;28;20061;-64
2022/09/18 08:35:48;;;;;;;8.32;3.95;;;9.20;99.90;;;;;;5028607;28;20458;-64
2022/09/18 08:38:13;;;;;;;11.00;4.03;;;9.30;99.90;;;;;;5029153;28;20040;-64
2022/09/18 08:40:54;;;;;;;7.80;3.90;;;9.30;99.90;;;;;;5028482;28;20438;-64
2022/09/18 08:43:38;;;;;;;8.82;3.75;;;9.30;99.90;;;;;;5029651;28;20108;-65
2022/09/18 08:46:44;;;;;;;7.18;4.20;;;9.30;99.90;;;;;;5027697;28;20029;-64
2022/09/18 08:49:31;;;;;;;10.50;4.15;;;9.30;99.90;;;;;;5027446;28;20083;-64
2022/09/18 08:52:14;;;;;;;10.23;3.50;;;9.30;99.90;;;;;;5009570;28;20058;-66
2022/09/18 08:54:52;;;;;;;6.28;3.67;;;9.40;99.90;;;;;;5008641;28;20040;-65
2022/09/18 08:57:46;;;;;;;7.65;3.85;;;9.50;99.90;;;;;;5009420;28;20065;-64
2022/09/18 09:00:36;;;;;;;9.65;3.38;;;9.60;99.90;;;;;;5027288;28;20050;-61
2022/09/18 09:03:23;;;;;;;9.23;3.38;;;9.60;99.90;;;;;;5029292;28;20034;-65
2022/09/18 09:05:59;;;;;;;10.70;3.47;;;9.60;99.90;;;;;;5028259;28;20029;-65
2022/09/18 09:08:33;;;;;;;7.03;3.72;;;9.70;99.90;;;;;;5028903;28;20675;-61
2022/09/18 09:11:04;;;;;;;5.50;3.15;;;9.60;99.90;;;;;;5028845;28;20155;-64
2022/09/18 09:13:55;;;;;;;4.88;3.42;;;9.60;99.90;;;;;;5027675;28;20079;-66
2022/09/18 09:16:33;;;;;;;6.93;3.63;;;9.60;99.90;;;;;;5028764;28;20041;-65
2022/09/18 09:19:01;;;;;;;6.30;3.58;;;9.60;99.90;;;;;;5028804;28;20540;-62
2022/09/18 09:21:44;;;;;;;9.73;4.13;;;9.60;99.90;;;;;;5031779;28;20052;-65
2022/09/18 09:24:32;;;;;;;6.28;3.72;;;9.50;99.90;;;;;;5032585;28;20176;-65
2022/09/18 09:27:01;;;;;;;6.25;4.00;;;9.60;99.90;;;;;;5032205;28;20048;-64
2022/09/18 09:29:31;;;;;;;6.25;3.88;;;9.50;99.90;;;;;;5032197;28;20386;-66
2022/09/18 09:32:10;;;;;;;8.73;4.22;;;9.50;99.90;;;;;;5032068;28;20045;-64
2022/09/18 09:34:45;;;;;;;8.93;4.15;;;9.60;99.90;;;;;;5031642;28;20042;-64
2022/09/18 09:37:17;;;;;;;10.73;4.43;;;9.60;99.90;;;;;;5032363;28;20033;-64
2022/09/18 09:39:49;;;;;;;6.93;4.15;;;9.60;99.90;;;;;;5031614;28;20057;-64
2022/09/18 09:42:32;;;;;;;12.63;4.38;;;9.60;99.90;;;;;;5031523;28;20094;-65
2022/09/18 09:45:16;;;;;;;12.20;4.60;;;9.60;99.90;;;;;;5032052;28;20029;-64
2022/09/18 09:47:51;;;;;;;13.35;4.22;;;9.70;99.90;;;;;;5031164;28;20371;-64
2022/09/18 09:50:54;;;;;;;7.57;3.92;;;9.70;99.90;;;;;;5031194;28;20033;-65
2022/09/18 09:53:23;;;;;;;6.82;4.05;;;9.80;99.90;;;;;;5012341;28;20080;-65
2022/09/18 09:56:10;;;;;;;7.32;4.05;;;10.00;99.90;;;;;;5011393;28;20022;-64
2022/09/18 09:59:04;;;;;;;7.28;3.35;;;10.00;99.90;;;;;;5011221;28;20125;-65
2022/09/18 10:01:39;;;;;;;6.90;3.95;;;10.00;99.90;;;;;;5012108;28;20037;-64
2022/09/18 10:04:55;;;;;;;6.65;3.92;;;10.10;99.90;;;;;;5012200;28;20061;-64
2022/09/18 10:07:29;;;;;;;8.48;3.35;;;10.20;99.90;;;;;;5018013;28;20045;-62
2022/09/18 10:10:34;;;;;;;6.35;3.50;;;10.10;99.90;;;;;;5029638;28;20096;-65
2022/09/18 10:13:05;;;;;;;7.22;3.40;;;10.20;99.90;;;;;;5026281;28;20038;-63
2022/09/18 10:15:40;;;;;;;4.60;3.17;;;10.30;99.90;;;;;;5031573;28;20032;-63
2022/09/18 10:18:17;;;;;;;7.60;3.20;;;10.30;99.90;;;;;;5031649;28;20521;-64
2022/09/18 10:20:45;;;;;;;6.88;3.55;;;10.40;99.90;;;;;;5029267;28;20485;-64
2022/09/18 10:23:35;;;;;;;6.32;3.25;;;10.30;99.90;;;;;;5031748;28;20024;-62
2022/09/18 10:26:01;;;;;;;6.10;2.90;;;10.30;99.90;;;;;;5031375;28;20033;-63
2022/09/18 10:28:28;;;;;;;9.82;3.55;;;10.20;99.90;;;;;;5031103;28;20030;-66
2022/09/18 10:31:15;;;;;;;5.78;3.65;;;10.40;99.90;;;;;;5030067;28;20553;-60
2022/09/18 10:33:50;;;;;;;7.82;3.40;;;10.40;99.90;;;;;;5025284;28;20449;-67
2022/09/18 10:36:25;;;;;;;7.68;3.90;;;10.40;99.90;;;;;;5027598;28;20037;-64
2022/09/18 10:38:51;;;;;;;5.40;3.53;;;10.40;99.90;;;;;;5029754;28;20123;-64
2022/09/18 10:41:19;;;;;;;7.60;3.58;;;10.40;99.90;;;;;;5030812;28;20094;-62
2022/09/18 10:43:59;;;;;;;8.98;3.55;;;10.50;99.90;;;;;;5029360;28;20127;-65
2022/09/18 10:46:28;;;;;;;11.50;3.40;;;10.50;99.90;;;;;;5028023;28;20040;-64
2022/09/18 10:48:54;;;;;;;12.02;3.38;;;10.60;99.90;;;;;;5028768;28;20040;-62
2022/09/18 10:51:24;;;;;;;6.05;3.53;;;10.60;99.90;;;;;;5030859;28;20037;-66
2022/09/18 10:54:13;;;;;;;8.70;3.78;;;10.70;99.90;;;;;;5029532;28;20071;-64
2022/09/18 10:56:39;;;;;;;8.43;2.78;;;10.70;99.90;;;;;;5030005;28;20032;-64
2022/09/18 10:59:31;;;;;;;7.80;3.15;;;10.70;99.90;;;;;;5030855;28;20041;-62
2022/09/18 11:01:59;;;;;;;9.90;2.97;;;10.70;99.90;;;;;;5029892;28;20644;-66
2022/09/18 11:04:27;;;;;;;10.43;2.90;;;10.80;99.90;;;;;;5028886;28;20040;-64
2022/09/18 11:06:55;;;;;;;9.13;3.10;;;10.90;99.90;;;;;;5029366;28;20037;-63
2022/09/18 11:09:29;;;;;;;9.35;3.00;;;11.10;99.90;;;;;;5030584;28;20017;-64
2022/09/18 11:11:55;;;;;;;8.88;3.50;;;11.30;99.90;;;;;;5029886;28;20031;-64
2022/09/18 11:14:25;;;;;;;9.52;3.00;;;11.40;99.90;;;;;;5028987;28;20490;-64
2022/09/18 11:16:57;;;;;;;9.40;3.35;;;11.50;99.90;;;;;;5022401;28;20052;-64
2022/09/18 11:19:28;;;;;;;4.90;3.00;;;11.40;99.90;;;;;;5023936;28;20035;-65
2022/09/18 11:21:58;;;;;;;10.23;2.30;;;11.40;99.90;;;;;;5022627;28;20419;-64
2022/09/18 11:24:24;;;;;;;5.72;2.72;;;11.50;99.90;;;;;;5025773;28;20030;-61
2022/09/18 11:26:58;;;;;;;10.07;2.60;;;11.60;99.90;;;;;;5027270;28;20395;-64
2022/09/18 11:29:31;;;;;;;9.07;2.65;;;11.60;99.90;;;;;;5025151;28;20053;-64
2022/09/18 11:32:14;;;;;;;6.72;2.35;;;11.70;99.90;;;;;;5025436;28;20063;-66
2022/09/18 11:34:48;;;;;;;4.95;2.30;;;11.90;99.90;;;;;;5025394;28;20040;-67
2022/09/18 11:37:27;;;;;;;10.68;2.38;;;12.20;99.90;;;;;;5025866;28;20474;-63
2022/09/18 11:39:59;;;;;;;5.40;2.13;;;12.20;99.90;;;;;;5028410;28;20064;-65
2022/09/18 11:42:25;;;;;;;12.18;2.60;;;12.20;99.90;;;;;;5028734;28;20032;-63
2022/09/18 11:44:52;;;;;;;5.20;1.98;;;12.30;99.90;;;;;;5026067;28;20117;-64
2022/09/18 11:47:44;;;;;;;6.60;2.03;;;12.10;99.90;;;;;;5029874;28;20022;-64
2022/09/18 11:50:16;;;;;;;10.55;1.90;;;12.00;99.90;;;;;;5028896;28;20139;-65
2022/09/18 11:52:45;;;;;;;6.10;2.85;;;11.90;99.90;;;;;;5024360;28;20068;-67
2022/09/18 11:55:38;;;;;;;6.65;1.98;;;11.90;99.90;;;;;;5024525;28;20478;-64
2022/09/18 11:58:33;;;;;;;6.15;2.13;;;11.90;99.90;;;;;;5024234;28;20029;-64
2022/09/18 12:01:05;;;;;;;4.90;1.60;;;11.80;99.90;;;;;;5026202;28;20112;-64
2022/09/18 12:03:36;;;;;;;7.88;2.08;;;11.80;99.90;;;;;;5027577;28;20037;-62
2022/09/18 12:06:20;;;;;;;;;;;12.00;99.90;;;;;;5026104;28;20352;-63
2022/09/18 12:08:55;;;;;;;3.20;1.58;;;12.50;99.90;;;;;;5028619;28;19916;-63
2022/09/18 12:11:41;;;;;;;6.45;1.85;;;12.80;99.90;;;;;;5022448;28;20040;-63
2022/09/18 12:14:22;;;;;;;2.75;1.15;;;13.20;99.90;;;;;;5029110;28;20057;-64
2022/09/18 12:16:53;;;;;;;4.20;1.27;;;13.40;99.90;;;;;;5027727;28;20374;-62
2022/09/18 12:19:39;;;;;;;4.35;1.45;;;13.60;99.90;;;;;;5027920;28;20040;-64
2022/09/18 12:22:16;;;;;;;3.42;1.27;;;13.30;99.90;;;;;;5027522;28;20033;-64
2022/09/18 12:24:42;;;;;;;4.22;1.15;;;13.10;99.90;;;;;;5028970;28;20040;-66
2022/09/18 12:27:39;;;;;;;3.55;1.20;;;13.00;99.90;;;;;;5026276;28;20030;-64
2022/09/18 12:30:17;;;;;;;5.10;1.13;;;13.10;99.90;;;;;;5013391;28;20052;-65
2022/09/18 12:33:03;;;;;;;8.48;1.33;;;13.30;99.90;;;;;;5026120;28;20046;-65
2022/09/18 12:35:50;;;;;;;3.80;0.98;;;13.50;99.90;;;;;;5025491;28;20038;-64
2022/09/18 12:38:31;;;;;;;8.52;1.20;;;13.60;99.90;;;;;;5026407;28;20037;-64
2022/09/18 12:41:39;;;;;;;4.60;1.17;;;13.60;99.90;;;;;;5022080;28;20033;-64
2022/09/18 12:44:47;;;;;;;7.20;0.93;;;13.60;99.90;;;;;;5031804;28;20040;-64
2022/09/18 12:47:28;;;;;;;2.83;1.15;;;13.70;99.90;;;;;;4987100;28;20044;-63
2022/09/18 12:50:11;;;;;;;3.03;1.08;;;13.70;99.90;;;;;;5029022;28;20029;-65
2022/09/18 12:52:52;;;;;;;1.90;0.80;;;13.70;99.90;;;;;;5033443;28;20029;-64
2022/09/18 12:55:30;;;;;;;1.38;0.75;;;13.40;99.90;;;;;;5039536;28;20033;-64
2022/09/18 12:58:24;;;;;;;3.90;0.98;;;13.20;99.90;;;;;;5028824;28;20049;-66
2022/09/18 13:00:51;;;;;;;2.85;0.80;;;13.10;99.90;;;;;;5027651;28;20040;-65
2022/09/18 13:03:29;;;;;;;2.83;0.80;;;13.00;99.90;;;;;;5031166;28;20033;-64
2022/09/18 13:06:19;;;;;;;2.55;0.98;;;12.90;99.90;;;;;;5026701;28;20490;-64
2022/09/18 13:08:57;;;;;;;3.25;0.80;;;12.90;99.90;;;;;;5024858;28;20108;-70
2022/09/18 13:11:41;;;;;;;4.30;0.70;;;12.80;99.90;;;;;;5024034;28;20029;-70
2022/09/18 13:14:21;;;;;;;3.03;0.73;;;12.80;99.90;;;;;;5025994;28;20025;-66
2022/09/18 13:16:56;;;;;;;3.70;1.00;;;12.70;99.90;;;;;;5036519;28;20032;-64
2022/09/18 13:19:29;;;;;;;4.47;0.90;;;12.70;99.90;;;;;;5031656;28;20037;-66
2022/09/18 13:21:59;;;;;;;6.47;1.00;;;12.70;99.90;;;;;;5023566;28;20041;-66